sensor_id;sensor_type;location;lat;lon;timestamp;P1;P2;P0
64613;PMS5003;51025;37.772;-122.432;2023-07-13T00:00:43;4;4;
64613;PMS5003;51025;37.772;-122.432;2023-07-13T00:03:11;7;6;
64613;PMS5003;51025;37.772;-122.432;2023-07-13T00:05:40;6;5;
64613;PMS5003;51025;37.772;-122.432;2023-07-13T00:08:08;6;5;
64613;PMS5003;51025;37.772;-122.432;2023-07-13T00:10:38;7;4;
64613;PMS5003;51025;37.772;-122.432;2023-07-13T00:13:08;6;6;
64613;PMS5003;51025;37.772;-122.432;2023-07-13T00:15:36;8;5;
64613;PMS5003;51025;37.772;-122.432;2023-07-13T00:18:05;4;4;
64613;PMS5003;51025;37.772;-122.432;2023-07-13T00:20:34;4;4;
64613;PMS5003;51025;37.772;-122.432;2023-07-13T00:23:02;6;5;
64613;PMS5003;51025;37.772;-122.432;2023-07-13T00:25:32;4;4;
64613;PMS5003;51025;37.772;-122.432;2023-07-13T00:28:01;4;4;
64613;PMS5003;51025;37.772;-122.432;2023-07-13T00:30:30;6;6;
64613;PMS5003;51025;37.772;-122.432;2023-07-13T00:32:58;5;4;
64613;PMS5003;51025;37.772;-122.432;2023-07-13T00:35:26;4;3;
64613;PMS5003;51025;37.772;-122.432;2023-07-13T00:37:58;4;3;
64613;PMS5003;51025;37.772;-122.432;2023-07-13T00:40:26;5;3;
64613;PMS5003;51025;37.772;-122.432;2023-07-13T00:42:56;8;5;
64613;PMS5003;51025;37.772;-122.432;2023-07-13T00:46:30;3;3;
64613;PMS5003;51025;37.772;-122.432;2023-07-13T00:49:01;6;4;
64613;PMS5003;51025;37.772;-122.432;2023-07-13T00:51:34;5;4;
64613;PMS5003;51025;37.772;-122.432;2023-07-13T00:54:13;5;4;
64613;PMS5003;51025;37.772;-122.432;2023-07-13T00:56:45;4;4;
64613;PMS5003;51025;37.772;-122.432;2023-07-13T00:59:15;7;5;
64613;PMS5003;51025;37.772;-122.432;2023-07-13T01:01:46;8;6;
64613;PMS5003;51025;37.772;-122.432;2023-07-13T01:04:16;4;2;
64613;PMS5003;51025;37.772;-122.432;2023-07-13T01:06:45;5;5;
64613;PMS5003;51025;37.772;-122.432;2023-07-13T01:09:14;3;3;
64613;PMS5003;51025;37.772;-122.432;2023-07-13T01:11:44;5;4;
64613;PMS5003;51025;37.772;-122.432;2023-07-13T01:14:13;5;3;
64613;PMS5003;51025;37.772;-122.432;2023-07-13T01:16:44;5;4;
64613;PMS5003;51025;37.772;-122.432;2023-07-13T01:19:17;7;7;
64613;PMS5003;51025;37.772;-122.432;2023-07-13T01:22:02;7;4;
64613;PMS5003;51025;37.772;-122.432;2023-07-13T01:24:33;5;5;
64613;PMS5003;51025;37.772;-122.432;2023-07-13T01:27:03;9;5;
64613;PMS5003;51025;37.772;-122.432;2023-07-13T01:29:34;7;7;
64613;PMS5003;51025;37.772;-122.432;2023-07-13T01:32:05;6;5;
64613;PMS5003;51025;37.772;-122.432;2023-07-13T01:34:36;5;5;
64613;PMS5003;51025;37.772;-122.432;2023-07-13T01:37:05;5;5;
64613;PMS5003;51025;37.772;-122.432;2023-07-13T01:39:34;6;6;
64613;PMS5003;51025;37.772;-122.432;2023-07-13T01:42:07;7;5;
64613;PMS5003;51025;37.772;-122.432;2023-07-13T01:44:35;4;4;
64613;PMS5003;51025;37.772;-122.432;2023-07-13T01:47:03;6;4;
64613;PMS5003;51025;37.772;-122.432;2023-07-13T01:49:32;8;7;
64613;PMS5003;51025;37.772;-122.432;2023-07-13T01:52:00;4;3;
64613;PMS5003;51025;37.772;-122.432;2023-07-13T01:54:28;9;6;
64613;PMS5003;51025;37.772;-122.432;2023-07-13T01:56:56;7;5;
64613;PMS5003;51025;37.772;-122.432;2023-07-13T01:59:24;5;5;
64613;PMS5003;51025;37.772;-122.432;2023-07-13T02:01:53;4;3;
64613;PMS5003;51025;37.772;-122.432;2023-07-13T02:04:21;5;5;
64613;PMS5003;51025;37.772;-122.432;2023-07-13T02:06:49;4;4;
64613;PMS5003;51025;37.772;-122.432;2023-07-13T02:09:18;4;4;
64613;PMS5003;51025;37.772;-122.432;2023-07-13T02:11:46;5;5;
64613;PMS5003;51025;37.772;-122.432;2023-07-13T02:14:15;7;6;
64613;PMS5003;51025;37.772;-122.432;2023-07-13T02:16:43;6;6;
64613;PMS5003;51025;37.772;-122.432;2023-07-13T02:19:11;5;4;
64613;PMS5003;51025;37.772;-122.432;2023-07-13T02:21:40;5;5;
64613;PMS5003;51025;37.772;-122.432;2023-07-13T02:24:10;5;5;
64613;PMS5003;51025;37.772;-122.432;2023-07-13T02:26:38;12;8;
64613;PMS5003;51025;37.772;-122.432;2023-07-13T02:29:06;10;8;
64613;PMS5003;51025;37.772;-122.432;2023-07-13T02:31:35;11;8;
64613;PMS5003;51025;37.772;-122.432;2023-07-13T02:34:03;12;10;
64613;PMS5003;51025;37.772;-122.432;2023-07-13T02:36:31;15;13;
64613;PMS5003;51025;37.772;-122.432;2023-07-13T02:39:00;11;9;
64613;PMS5003;51025;37.772;-122.432;2023-07-13T02:41:30;10;6;
64613;PMS5003;51025;37.772;-122.432;2023-07-13T02:43:58;18;13;
64613;PMS5003;51025;37.772;-122.432;2023-07-13T02:46:27;13;12;
64613;PMS5003;51025;37.772;-122.432;2023-07-13T02:48:56;9;6;
64613;PMS5003;51025;37.772;-122.432;2023-07-13T02:51:24;8;6;
64613;PMS5003;51025;37.772;-122.432;2023-07-13T02:53:53;13;8;
64613;PMS5003;51025;37.772;-122.432;2023-07-13T02:56:23;10;7;
64613;PMS5003;51025;37.772;-122.432;2023-07-13T02:58:55;12;7;
64613;PMS5003;51025;37.772;-122.432;2023-07-13T03:01:23;6;5;
64613;PMS5003;51025;37.772;-122.432;2023-07-13T03:03:52;9;7;
64613;PMS5003;51025;37.772;-122.432;2023-07-13T03:06:21;6;5;
64613;PMS5003;51025;37.772;-122.432;2023-07-13T03:08:50;9;6;
64613;PMS5003;51025;37.772;-122.432;2023-07-13T03:11:19;6;6;
64613;PMS5003;51025;37.772;-122.432;2023-07-13T03:13:49;6;6;
64613;PMS5003;51025;37.772;-122.432;2023-07-13T03:16:17;6;5;
64613;PMS5003;51025;37.772;-122.432;2023-07-13T03:18:46;9;6;
64613;PMS5003;51025;37.772;-122.432;2023-07-13T03:21:15;6;5;
64613;PMS5003;51025;37.772;-122.432;2023-07-13T03:23:43;10;8;
64613;PMS5003;51025;37.772;-122.432;2023-07-13T03:26:12;7;6;
64613;PMS5003;51025;37.772;-122.432;2023-07-13T03:28:42;4;4;
64613;PMS5003;51025;37.772;-122.432;2023-07-13T03:31:12;6;5;
64613;PMS5003;51025;37.772;-122.432;2023-07-13T03:33:43;4;4;
64613;PMS5003;51025;37.772;-122.432;2023-07-13T03:36:13;5;3;
64613;PMS5003;51025;37.772;-122.432;2023-07-13T03:38:43;7;4;
64613;PMS5003;51025;37.772;-122.432;2023-07-13T03:41:12;6;5;
64613;PMS5003;51025;37.772;-122.432;2023-07-13T03:43:41;6;4;
64613;PMS5003;51025;37.772;-122.432;2023-07-13T03:46:10;5;5;
64613;PMS5003;51025;37.772;-122.432;2023-07-13T03:48:40;5;4;
64613;PMS5003;51025;37.772;-122.432;2023-07-13T03:51:11;9;6;
64613;PMS5003;51025;37.772;-122.432;2023-07-13T03:53:43;5;5;
64613;PMS5003;51025;37.772;-122.432;2023-07-13T03:56:13;7;3;
64613;PMS5003;51025;37.772;-122.432;2023-07-13T03:58:44;4;4;
64613;PMS5003;51025;37.772;-122.432;2023-07-13T04:01:14;6;5;
64613;PMS5003;51025;37.772;-122.432;2023-07-13T04:03:45;5;5;
64613;PMS5003;51025;37.772;-122.432;2023-07-13T04:06:15;6;4;
64613;PMS5003;51025;37.772;-122.432;2023-07-13T04:08:45;9;9;
64613;PMS5003;51025;37.772;-122.432;2023-07-13T04:11:14;8;6;
64613;PMS5003;51025;37.772;-122.432;2023-07-13T04:13:43;6;4;
64613;PMS5003;51025;37.772;-122.432;2023-07-13T04:16:12;9;6;
64613;PMS5003;51025;37.772;-122.432;2023-07-13T04:18:42;5;5;
64613;PMS5003;51025;37.772;-122.432;2023-07-13T04:21:11;6;6;
64613;PMS5003;51025;37.772;-122.432;2023-07-13T04:23:39;4;4;
64613;PMS5003;51025;37.772;-122.432;2023-07-13T04:26:08;4;3;
64613;PMS5003;51025;37.772;-122.432;2023-07-13T04:28:37;5;5;
64613;PMS5003;51025;37.772;-122.432;2023-07-13T04:31:05;5;4;
64613;PMS5003;51025;37.772;-122.432;2023-07-13T04:33:33;6;6;
64613;PMS5003;51025;37.772;-122.432;2023-07-13T04:36:02;5;4;
64613;PMS5003;51025;37.772;-122.432;2023-07-13T04:38:31;3;3;
64613;PMS5003;51025;37.772;-122.432;2023-07-13T04:41:01;6;4;
64613;PMS5003;51025;37.772;-122.432;2023-07-13T04:43:32;4;4;
64613;PMS5003;51025;37.772;-122.432;2023-07-13T04:46:03;5;2;
64613;PMS5003;51025;37.772;-122.432;2023-07-13T04:48:34;5;5;
64613;PMS5003;51025;37.772;-122.432;2023-07-13T04:51:03;6;5;
64613;PMS5003;51025;37.772;-122.432;2023-07-13T04:53:32;4;4;
64613;PMS5003;51025;37.772;-122.432;2023-07-13T04:56:00;5;3;
64613;PMS5003;51025;37.772;-122.432;2023-07-13T04:58:30;4;4;
64613;PMS5003;51025;37.772;-122.432;2023-07-13T05:01:00;3;3;
64613;PMS5003;51025;37.772;-122.432;2023-07-13T05:03:29;5;4;
64613;PMS5003;51025;37.772;-122.432;2023-07-13T05:05:59;6;5;
64613;PMS5003;51025;37.772;-122.432;2023-07-13T05:08:28;4;4;
64613;PMS5003;51025;37.772;-122.432;2023-07-13T05:10:56;5;3;
64613;PMS5003;51025;37.772;-122.432;2023-07-13T05:13:27;4;4;
64613;PMS5003;51025;37.772;-122.432;2023-07-13T05:15:56;2;2;
64613;PMS5003;51025;37.772;-122.432;2023-07-13T05:18:27;3;3;
64613;PMS5003;51025;37.772;-122.432;2023-07-13T05:20:57;5;3;
64613;PMS5003;51025;37.772;-122.432;2023-07-13T05:23:28;4;4;
64613;PMS5003;51025;37.772;-122.432;2023-07-13T05:25:56;3;3;
64613;PMS5003;51025;37.772;-122.432;2023-07-13T05:28:25;4;4;
64613;PMS5003;51025;37.772;-122.432;2023-07-13T05:30:54;3;2;
64613;PMS5003;51025;37.772;-122.432;2023-07-13T05:33:23;4;4;
64613;PMS5003;51025;37.772;-122.432;2023-07-13T05:35:52;2;2;
64613;PMS5003;51025;37.772;-122.432;2023-07-13T05:38:20;3;3;
64613;PMS5003;51025;37.772;-122.432;2023-07-13T05:40:49;5;4;
64613;PMS5003;51025;37.772;-122.432;2023-07-13T05:43:18;2;2;
64613;PMS5003;51025;37.772;-122.432;2023-07-13T05:45:46;5;4;
64613;PMS5003;51025;37.772;-122.432;2023-07-13T05:48:15;3;3;
64613;PMS5003;51025;37.772;-122.432;2023-07-13T05:50:44;5;5;
64613;PMS5003;51025;37.772;-122.432;2023-07-13T05:53:13;3;3;
64613;PMS5003;51025;37.772;-122.432;2023-07-13T05:55:42;5;5;
64613;PMS5003;51025;37.772;-122.432;2023-07-13T05:58:11;3;3;
64613;PMS5003;51025;37.772;-122.432;2023-07-13T06:00:39;5;5;
64613;PMS5003;51025;37.772;-122.432;2023-07-13T06:03:07;4;4;
64613;PMS5003;51025;37.772;-122.432;2023-07-13T06:05:36;5;4;
64613;PMS5003;51025;37.772;-122.432;2023-07-13T06:08:06;5;4;
64613;PMS5003;51025;37.772;-122.432;2023-07-13T06:10:35;4;4;
64613;PMS5003;51025;37.772;-122.432;2023-07-13T06:13:03;6;4;
64613;PMS5003;51025;37.772;-122.432;2023-07-13T06:15:32;2;2;
64613;PMS5003;51025;37.772;-122.432;2023-07-13T06:18:00;8;4;
64613;PMS5003;51025;37.772;-122.432;2023-07-13T06:20:28;4;3;
64613;PMS5003;51025;37.772;-122.432;2023-07-13T06:22:57;3;3;
64613;PMS5003;51025;37.772;-122.432;2023-07-13T06:25:26;5;4;
64613;PMS5003;51025;37.772;-122.432;2023-07-13T06:27:54;4;4;
64613;PMS5003;51025;37.772;-122.432;2023-07-13T06:30:22;7;4;
64613;PMS5003;51025;37.772;-122.432;2023-07-13T06:32:51;4;2;
64613;PMS5003;51025;37.772;-122.432;2023-07-13T06:35:20;7;6;
64613;PMS5003;51025;37.772;-122.432;2023-07-13T06:37:49;3;3;
64613;PMS5003;51025;37.772;-122.432;2023-07-13T06:40:17;5;4;
64613;PMS5003;51025;37.772;-122.432;2023-07-13T06:42:45;6;3;
64613;PMS5003;51025;37.772;-122.432;2023-07-13T06:45:13;5;5;
64613;PMS5003;51025;37.772;-122.432;2023-07-13T06:47:42;6;6;
64613;PMS5003;51025;37.772;-122.432;2023-07-13T06:50:10;6;6;
64613;PMS5003;51025;37.772;-122.432;2023-07-13T06:52:38;7;7;
64613;PMS5003;51025;37.772;-122.432;2023-07-13T06:55:06;9;7;
64613;PMS5003;51025;37.772;-122.432;2023-07-13T06:57:35;11;7;
64613;PMS5003;51025;37.772;-122.432;2023-07-13T07:00:04;8;7;
64613;PMS5003;51025;37.772;-122.432;2023-07-13T07:02:33;7;7;
64613;PMS5003;51025;37.772;-122.432;2023-07-13T07:05:02;14;11;
64613;PMS5003;51025;37.772;-122.432;2023-07-13T07:07:30;8;7;
64613;PMS5003;51025;37.772;-122.432;2023-07-13T07:09:59;8;6;
64613;PMS5003;51025;37.772;-122.432;2023-07-13T07:12:28;7;6;
64613;PMS5003;51025;37.772;-122.432;2023-07-13T07:14:57;9;7;
64613;PMS5003;51025;37.772;-122.432;2023-07-13T07:17:25;10;7;
64613;PMS5003;51025;37.772;-122.432;2023-07-13T07:19:53;11;10;
64613;PMS5003;51025;37.772;-122.432;2023-07-13T07:22:21;16;12;
64613;PMS5003;51025;37.772;-122.432;2023-07-13T07:24:50;9;7;
64613;PMS5003;51025;37.772;-122.432;2023-07-13T07:27:19;10;7;
64613;PMS5003;51025;37.772;-122.432;2023-07-13T07:29:48;11;11;
64613;PMS5003;51025;37.772;-122.432;2023-07-13T07:32:16;15;9;
64613;PMS5003;51025;37.772;-122.432;2023-07-13T07:34:46;7;7;
64613;PMS5003;51025;37.772;-122.432;2023-07-13T07:37:14;11;9;
64613;PMS5003;51025;37.772;-122.432;2023-07-13T07:39:43;11;9;
64613;PMS5003;51025;37.772;-122.432;2023-07-13T07:42:12;18;10;
64613;PMS5003;51025;37.772;-122.432;2023-07-13T07:44:41;10;8;
64613;PMS5003;51025;37.772;-122.432;2023-07-13T07:47:09;9;8;
64613;PMS5003;51025;37.772;-122.432;2023-07-13T07:49:37;12;9;
64613;PMS5003;51025;37.772;-122.432;2023-07-13T07:52:06;11;10;
64613;PMS5003;51025;37.772;-122.432;2023-07-13T07:54:35;9;9;
64613;PMS5003;51025;37.772;-122.432;2023-07-13T07:57:03;8;7;
64613;PMS5003;51025;37.772;-122.432;2023-07-13T07:59:32;6;6;
64613;PMS5003;51025;37.772;-122.432;2023-07-13T08:02:00;7;7;
64613;PMS5003;51025;37.772;-122.432;2023-07-13T08:04:28;10;8;
64613;PMS5003;51025;37.772;-122.432;2023-07-13T08:06:57;9;7;
64613;PMS5003;51025;37.772;-122.432;2023-07-13T08:09:26;6;5;
64613;PMS5003;51025;37.772;-122.432;2023-07-13T08:11:55;9;8;
64613;PMS5003;51025;37.772;-122.432;2023-07-13T08:14:23;13;8;
64613;PMS5003;51025;37.772;-122.432;2023-07-13T08:16:51;5;5;
64613;PMS5003;51025;37.772;-122.432;2023-07-13T08:19:21;9;7;
64613;PMS5003;51025;37.772;-122.432;2023-07-13T08:21:49;9;6;
64613;PMS5003;51025;37.772;-122.432;2023-07-13T08:24:17;7;6;
64613;PMS5003;51025;37.772;-122.432;2023-07-13T08:26:48;8;6;
64613;PMS5003;51025;37.772;-122.432;2023-07-13T08:29:17;9;8;
64613;PMS5003;51025;37.772;-122.432;2023-07-13T08:31:47;6;6;
64613;PMS5003;51025;37.772;-122.432;2023-07-13T08:34:15;16;10;
64613;PMS5003;51025;37.772;-122.432;2023-07-13T08:36:44;6;5;
64613;PMS5003;51025;37.772;-122.432;2023-07-13T08:39:12;11;8;
64613;PMS5003;51025;37.772;-122.432;2023-07-13T08:41:41;11;11;
64613;PMS5003;51025;37.772;-122.432;2023-07-13T08:44:15;11;6;
64613;PMS5003;51025;37.772;-122.432;2023-07-13T08:46:49;13;10;
64613;PMS5003;51025;37.772;-122.432;2023-07-13T08:49:21;8;7;
64613;PMS5003;51025;37.772;-122.432;2023-07-13T08:51:50;12;7;
64613;PMS5003;51025;37.772;-122.432;2023-07-13T08:54:27;12;10;
64613;PMS5003;51025;37.772;-122.432;2023-07-13T08:56:58;8;6;
64613;PMS5003;51025;37.772;-122.432;2023-07-13T08:59:31;12;9;
64613;PMS5003;51025;37.772;-122.432;2023-07-13T09:02:08;11;6;
64613;PMS5003;51025;37.772;-122.432;2023-07-13T09:04:49;5;5;
64613;PMS5003;51025;37.772;-122.432;2023-07-13T09:07:29;10;8;
64613;PMS5003;51025;37.772;-122.432;2023-07-13T09:10:09;11;5;
64613;PMS5003;51025;37.772;-122.432;2023-07-13T09:12:46;4;4;
64613;PMS5003;51025;37.772;-122.432;2023-07-13T09:15:24;5;5;
64613;PMS5003;51025;37.772;-122.432;2023-07-13T09:17:57;5;5;
64613;PMS5003;51025;37.772;-122.432;2023-07-13T09:20:31;7;4;
64613;PMS5003;51025;37.772;-122.432;2023-07-13T09:23:04;13;9;
64613;PMS5003;51025;37.772;-122.432;2023-07-13T09:25:38;8;7;
64613;PMS5003;51025;37.772;-122.432;2023-07-13T09:28:11;9;5;
64613;PMS5003;51025;37.772;-122.432;2023-07-13T09:30:45;6;6;
64613;PMS5003;51025;37.772;-122.432;2023-07-13T09:33:18;5;4;
64613;PMS5003;51025;37.772;-122.432;2023-07-13T09:35:47;6;4;
64613;PMS5003;51025;37.772;-122.432;2023-07-13T09:38:17;4;4;
64613;PMS5003;51025;37.772;-122.432;2023-07-13T09:40:55;8;5;
64613;PMS5003;51025;37.772;-122.432;2023-07-13T09:43:30;4;3;
64613;PMS5003;51025;37.772;-122.432;2023-07-13T09:45:58;4;4;
64613;PMS5003;51025;37.772;-122.432;2023-07-13T09:48:30;4;3;
64613;PMS5003;51025;37.772;-122.432;2023-07-13T09:51:07;4;3;
64613;PMS5003;51025;37.772;-122.432;2023-07-13T09:53:41;5;4;
64613;PMS5003;51025;37.772;-122.432;2023-07-13T09:56:19;6;4;
64613;PMS5003;51025;37.772;-122.432;2023-07-13T09:58:48;5;3;
64613;PMS5003;51025;37.772;-122.432;2023-07-13T10:01:17;6;5;
64613;PMS5003;51025;37.772;-122.432;2023-07-13T10:04:00;8;4;
64613;PMS5003;51025;37.772;-122.432;2023-07-13T10:06:37;4;3;
64613;PMS5003;51025;37.772;-122.432;2023-07-13T10:09:07;6;5;
64613;PMS5003;51025;37.772;-122.432;2023-07-13T10:11:36;5;5;
64613;PMS5003;51025;37.772;-122.432;2023-07-13T10:14:10;4;3;
64613;PMS5003;51025;37.772;-122.432;2023-07-13T10:16:43;3;3;
64613;PMS5003;51025;37.772;-122.432;2023-07-13T10:19:13;3;2;
64613;PMS5003;51025;37.772;-122.432;2023-07-13T10:21:47;6;3;
64613;PMS5003;51025;37.772;-122.432;2023-07-13T10:24:22;4;2;
64613;PMS5003;51025;37.772;-122.432;2023-07-13T10:26:53;5;4;
64613;PMS5003;51025;37.772;-122.432;2023-07-13T10:29:25;5;3;
64613;PMS5003;51025;37.772;-122.432;2023-07-13T10:31:56;4;4;
64613;PMS5003;51025;37.772;-122.432;2023-07-13T10:34:25;3;2;
64613;PMS5003;51025;37.772;-122.432;2023-07-13T10:36:54;6;4;
64613;PMS5003;51025;37.772;-122.432;2023-07-13T10:39:25;4;4;
64613;PMS5003;51025;37.772;-122.432;2023-07-13T10:41:57;5;3;
64613;PMS5003;51025;37.772;-122.432;2023-07-13T10:44:29;2;1;
64613;PMS5003;51025;37.772;-122.432;2023-07-13T10:46:59;2;2;
64613;PMS5003;51025;37.772;-122.432;2023-07-13T10:49:31;2;2;
64613;PMS5003;51025;37.772;-122.432;2023-07-13T10:52:03;2;2;
64613;PMS5003;51025;37.772;-122.432;2023-07-13T10:54:32;2;2;
64613;PMS5003;51025;37.772;-122.432;2023-07-13T10:57:14;2;1;
64613;PMS5003;51025;37.772;-122.432;2023-07-13T10:59:48;3;1;
64613;PMS5003;51025;37.772;-122.432;2023-07-13T11:02:41;3;3;
64613;PMS5003;51025;37.772;-122.432;2023-07-13T11:05:17;3;2;
64613;PMS5003;51025;37.772;-122.432;2023-07-13T11:07:54;4;2;
64613;PMS5003;51025;37.772;-122.432;2023-07-13T11:10:47;4;3;
64613;PMS5003;51025;37.772;-122.432;2023-07-13T11:15:32;1;1;
64613;PMS5003;51025;37.772;-122.432;2023-07-13T11:18:20;3;2;
64613;PMS5003;51025;37.772;-122.432;2023-07-13T11:20:51;1;1;
64613;PMS5003;51025;37.772;-122.432;2023-07-13T11:23:42;2;2;
64613;PMS5003;51025;37.772;-122.432;2023-07-13T11:26:50;1;1;
64613;PMS5003;51025;37.772;-122.432;2023-07-13T11:29:24;1;1;
64613;PMS5003;51025;37.772;-122.432;2023-07-13T11:32:00;0;0;
64613;PMS5003;51025;37.772;-122.432;2023-07-13T11:34:48;1;1;
64613;PMS5003;51025;37.772;-122.432;2023-07-13T11:37:17;1;1;
64613;PMS5003;51025;37.772;-122.432;2023-07-13T11:39:49;2;1;
64613;PMS5003;51025;37.772;-122.432;2023-07-13T11:42:20;2;2;
64613;PMS5003;51025;37.772;-122.432;2023-07-13T11:44:49;3;2;
64613;PMS5003;51025;37.772;-122.432;2023-07-13T11:47:20;0;0;
64613;PMS5003;51025;37.772;-122.432;2023-07-13T11:49:51;1;1;
64613;PMS5003;51025;37.772;-122.432;2023-07-13T11:52:21;1;1;
64613;PMS5003;51025;37.772;-122.432;2023-07-13T11:54:54;0;0;
64613;PMS5003;51025;37.772;-122.432;2023-07-13T11:57:25;1;1;
64613;PMS5003;51025;37.772;-122.432;2023-07-13T11:59:56;0;0;
64613;PMS5003;51025;37.772;-122.432;2023-07-13T12:02:28;1;1;
64613;PMS5003;51025;37.772;-122.432;2023-07-13T12:04:59;2;1;
64613;PMS5003;51025;37.772;-122.432;2023-07-13T12:07:31;0;0;
64613;PMS5003;51025;37.772;-122.432;2023-07-13T12:10:01;2;2;
64613;PMS5003;51025;37.772;-122.432;2023-07-13T12:12:30;6;4;
64613;PMS5003;51025;37.772;-122.432;2023-07-13T12:14:58;2;1;
64613;PMS5003;51025;37.772;-122.432;2023-07-13T12:17:26;0;0;
64613;PMS5003;51025;37.772;-122.432;2023-07-13T12:19:55;1;1;
64613;PMS5003;51025;37.772;-122.432;2023-07-13T12:22:24;2;1;
64613;PMS5003;51025;37.772;-122.432;2023-07-13T12:24:55;1;1;
64613;PMS5003;51025;37.772;-122.432;2023-07-13T12:27:25;1;0;
64613;PMS5003;51025;37.772;-122.432;2023-07-13T12:29:58;2;1;
64613;PMS5003;51025;37.772;-122.432;2023-07-13T12:32:27;1;1;
64613;PMS5003;51025;37.772;-122.432;2023-07-13T12:34:56;3;3;
64613;PMS5003;51025;37.772;-122.432;2023-07-13T12:37:34;2;2;
64613;PMS5003;51025;37.772;-122.432;2023-07-13T12:40:03;1;0;
64613;PMS5003;51025;37.772;-122.432;2023-07-13T12:42:32;1;1;
64613;PMS5003;51025;37.772;-122.432;2023-07-13T12:45:01;1;1;
64613;PMS5003;51025;37.772;-122.432;2023-07-13T12:47:39;0;0;
64613;PMS5003;51025;37.772;-122.432;2023-07-13T12:50:14;3;2;
64613;PMS5003;51025;37.772;-122.432;2023-07-13T12:52:43;1;1;
64613;PMS5003;51025;37.772;-122.432;2023-07-13T12:55:18;1;1;
64613;PMS5003;51025;37.772;-122.432;2023-07-13T12:57:49;2;2;
64613;PMS5003;51025;37.772;-122.432;2023-07-13T13:00:22;0;0;
64613;PMS5003;51025;37.772;-122.432;2023-07-13T13:02:52;0;0;
64613;PMS5003;51025;37.772;-122.432;2023-07-13T13:05:24;1;1;
64613;PMS5003;51025;37.772;-122.432;2023-07-13T13:07:54;0;0;
64613;PMS5003;51025;37.772;-122.432;2023-07-13T13:10:22;1;1;
64613;PMS5003;51025;37.772;-122.432;2023-07-13T13:12:51;3;3;
64613;PMS5003;51025;37.772;-122.432;2023-07-13T13:15:20;1;1;
64613;PMS5003;51025;37.772;-122.432;2023-07-13T13:17:49;1;0;
64613;PMS5003;51025;37.772;-122.432;2023-07-13T13:20:18;0;0;
64613;PMS5003;51025;37.772;-122.432;2023-07-13T13:22:47;0;0;
64613;PMS5003;51025;37.772;-122.432;2023-07-13T13:25:15;1;1;
64613;PMS5003;51025;37.772;-122.432;2023-07-13T13:27:44;1;1;
64613;PMS5003;51025;37.772;-122.432;2023-07-13T13:30:13;0;0;
64613;PMS5003;51025;37.772;-122.432;2023-07-13T13:32:45;0;0;
64613;PMS5003;51025;37.772;-122.432;2023-07-13T13:35:15;0;0;
64613;PMS5003;51025;37.772;-122.432;2023-07-13T13:37:45;4;1;
64613;PMS5003;51025;37.772;-122.432;2023-07-13T13:40:15;0;0;
64613;PMS5003;51025;37.772;-122.432;2023-07-13T13:42:45;0;0;
64613;PMS5003;51025;37.772;-122.432;2023-07-13T13:45:14;0;0;
64613;PMS5003;51025;37.772;-122.432;2023-07-13T13:47:42;1;1;
64613;PMS5003;51025;37.772;-122.432;2023-07-13T13:50:11;0;0;
64613;PMS5003;51025;37.772;-122.432;2023-07-13T13:52:40;1;1;
64613;PMS5003;51025;37.772;-122.432;2023-07-13T13:55:13;2;0;
64613;PMS5003;51025;37.772;-122.432;2023-07-13T13:57:45;1;1;
64613;PMS5003;51025;37.772;-122.432;2023-07-13T14:00:14;1;1;
64613;PMS5003;51025;37.772;-122.432;2023-07-13T14:02:45;1;1;
64613;PMS5003;51025;37.772;-122.432;2023-07-13T14:05:15;1;0;
64613;PMS5003;51025;37.772;-122.432;2023-07-13T14:07:48;1;1;
64613;PMS5003;51025;37.772;-122.432;2023-07-13T14:10:18;0;0;
64613;PMS5003;51025;37.772;-122.432;2023-07-13T14:12:48;1;1;
64613;PMS5003;51025;37.772;-122.432;2023-07-13T14:15:21;1;1;
64613;PMS5003;51025;37.772;-122.432;2023-07-13T14:17:52;0;0;
64613;PMS5003;51025;37.772;-122.432;2023-07-13T14:20:21;2;1;
64613;PMS5003;51025;37.772;-122.432;2023-07-13T14:22:51;1;1;
64613;PMS5003;51025;37.772;-122.432;2023-07-13T14:25:20;0;0;
64613;PMS5003;51025;37.772;-122.432;2023-07-13T14:27:53;0;0;
64613;PMS5003;51025;37.772;-122.432;2023-07-13T14:30:25;0;0;
64613;PMS5003;51025;37.772;-122.432;2023-07-13T14:32:53;1;1;
64613;PMS5003;51025;37.772;-122.432;2023-07-13T14:35:21;0;0;
64613;PMS5003;51025;37.772;-122.432;2023-07-13T14:37:50;0;0;
64613;PMS5003;51025;37.772;-122.432;2023-07-13T14:40:21;2;1;
64613;PMS5003;51025;37.772;-122.432;2023-07-13T14:42:57;0;0;
64613;PMS5003;51025;37.772;-122.432;2023-07-13T14:45:25;1;1;
64613;PMS5003;51025;37.772;-122.432;2023-07-13T14:47:55;2;0;
64613;PMS5003;51025;37.772;-122.432;2023-07-13T14:50:27;5;3;
64613;PMS5003;51025;37.772;-122.432;2023-07-13T14:52:57;1;1;
64613;PMS5003;51025;37.772;-122.432;2023-07-13T14:55:25;3;3;
64613;PMS5003;51025;37.772;-122.432;2023-07-13T14:57:53;0;0;
64613;PMS5003;51025;37.772;-122.432;2023-07-13T15:00:22;1;1;
64613;PMS5003;51025;37.772;-122.432;2023-07-13T15:02:52;1;1;
64613;PMS5003;51025;37.772;-122.432;2023-07-13T15:05:23;2;1;
64613;PMS5003;51025;37.772;-122.432;2023-07-13T15:07:53;0;0;
64613;PMS5003;51025;37.772;-122.432;2023-07-13T15:10:25;0;0;
64613;PMS5003;51025;37.772;-122.432;2023-07-13T15:12:57;0;0;
64613;PMS5003;51025;37.772;-122.432;2023-07-13T15:15:27;1;1;
64613;PMS5003;51025;37.772;-122.432;2023-07-13T15:17:56;2;1;
64613;PMS5003;51025;37.772;-122.432;2023-07-13T15:20:26;0;0;
64613;PMS5003;51025;37.772;-122.432;2023-07-13T15:22:56;0;0;
64613;PMS5003;51025;37.772;-122.432;2023-07-13T15:25:25;1;1;
64613;PMS5003;51025;37.772;-122.432;2023-07-13T15:27:56;0;0;
64613;PMS5003;51025;37.772;-122.432;2023-07-13T15:30:24;1;1;
64613;PMS5003;51025;37.772;-122.432;2023-07-13T15:32:56;1;1;
64613;PMS5003;51025;37.772;-122.432;2023-07-13T15:35:26;0;0;
64613;PMS5003;51025;37.772;-122.432;2023-07-13T15:37:54;2;0;
64613;PMS5003;51025;37.772;-122.432;2023-07-13T15:40:22;1;1;
64613;PMS5003;51025;37.772;-122.432;2023-07-13T15:42:51;0;0;
64613;PMS5003;51025;37.772;-122.432;2023-07-13T15:45:20;0;0;
64613;PMS5003;51025;37.772;-122.432;2023-07-13T15:47:50;0;0;
64613;PMS5003;51025;37.772;-122.432;2023-07-13T15:50:20;0;0;
64613;PMS5003;51025;37.772;-122.432;2023-07-13T15:52:52;0;0;
64613;PMS5003;51025;37.772;-122.432;2023-07-13T15:55:22;1;1;
64613;PMS5003;51025;37.772;-122.432;2023-07-13T15:57:51;1;0;
64613;PMS5003;51025;37.772;-122.432;2023-07-13T16:00:20;0;0;
64613;PMS5003;51025;37.772;-122.432;2023-07-13T16:02:50;1;1;
64613;PMS5003;51025;37.772;-122.432;2023-07-13T16:05:20;3;3;
64613;PMS5003;51025;37.772;-122.432;2023-07-13T16:07:50;0;0;
64613;PMS5003;51025;37.772;-122.432;2023-07-13T16:10:22;1;1;
64613;PMS5003;51025;37.772;-122.432;2023-07-13T16:12:57;0;0;
64613;PMS5003;51025;37.772;-122.432;2023-07-13T16:15:28;1;1;
64613;PMS5003;51025;37.772;-122.432;2023-07-13T16:17:56;1;1;
64613;PMS5003;51025;37.772;-122.432;2023-07-13T16:20:24;1;1;
64613;PMS5003;51025;37.772;-122.432;2023-07-13T16:22:53;1;1;